sensor_id;sensor_type;location;lat;lon;timestamp;temperature;humidity
18894;DHT22;9579;49.488;8.226;2023-03-20T00:02:43;11.90;99.90
18894;DHT22;9579;49.488;8.226;2023-03-20T00:05:30;12.30;99.90
18894;DHT22;9579;49.488;8.226;2023-03-20T00:08:18;12.30;99.90
18894;DHT22;9579;49.488;8.226;2023-03-20T00:11:13;12.30;99.90
18894;DHT22;9579;49.488;8.226;2023-03-20T00:14:10;12.30;99.90
18894;DHT22;9579;49.488;8.226;2023-03-20T00:16:59;12.50;99.90
18894;DHT22;9579;49.488;8.226;2023-03-20T00:19:46;13.60;99.90
18894;DHT22;9579;49.488;8.226;2023-03-20T00:22:34;13.80;99.90
18894;DHT22;9579;49.488;8.226;2023-03-20T00:25:23;11.60;99.90
18894;DHT22;9579;49.488;8.226;2023-03-20T00:28:41;12.90;99.90
18894;DHT22;9579;49.488;8.226;2023-03-20T00:31:30;13.20;99.90
18894;DHT22;9579;49.488;8.226;2023-03-20T00:34:20;13.50;99.90
18894;DHT22;9579;49.488;8.226;2023-03-20T00:37:09;12.80;99.90
18894;DHT22;9579;49.488;8.226;2023-03-20T00:39:57;12.60;99.90
18894;DHT22;9579;49.488;8.226;2023-03-20T00:42:47;12.90;99.90
18894;DHT22;9579;49.488;8.226;2023-03-20T00:45:36;12.70;99.90
18894;DHT22;9579;49.488;8.226;2023-03-20T00:48:24;12.70;99.90
18894;DHT22;9579;49.488;8.226;2023-03-20T00:51:11;12.60;99.90
18894;DHT22;9579;49.488;8.226;2023-03-20T00:53:59;12.70;99.90
18894;DHT22;9579;49.488;8.226;2023-03-20T00:56:50;12.70;99.90
18894;DHT22;9579;49.488;8.226;2023-03-20T00:59:45;13.30;99.90
18894;DHT22;9579;49.488;8.226;2023-03-20T01:02:39;12.60;99.90
18894;DHT22;9579;49.488;8.226;2023-03-20T01:05:28;12.70;99.90
18894;DHT22;9579;49.488;8.226;2023-03-20T01:08:17;13.00;99.90
18894;DHT22;9579;49.488;8.226;2023-03-20T01:11:05;12.60;99.90
18894;DHT22;9579;49.488;8.226;2023-03-20T01:13:53;12.60;99.90
18894;DHT22;9579;49.488;8.226;2023-03-20T01:16:41;12.70;99.90
18894;DHT22;9579;49.488;8.226;2023-03-20T01:19:30;12.70;99.90
18894;DHT22;9579;49.488;8.226;2023-03-20T01:22:17;13.10;99.90
18894;DHT22;9579;49.488;8.226;2023-03-20T01:25:06;13.00;99.90
18894;DHT22;9579;49.488;8.226;2023-03-20T01:27:54;12.60;99.90
18894;DHT22;9579;49.488;8.226;2023-03-20T01:30:43;12.70;99.90
18894;DHT22;9579;49.488;8.226;2023-03-20T01:33:31;13.50;99.90
18894;DHT22;9579;49.488;8.226;2023-03-20T01:36:22;12.70;99.90
18894;DHT22;9579;49.488;8.226;2023-03-20T01:39:09;12.70;99.90
18894;DHT22;9579;49.488;8.226;2023-03-20T01:41:59;12.70;99.90
18894;DHT22;9579;49.488;8.226;2023-03-20T01:44:46;12.70;99.90
18894;DHT22;9579;49.488;8.226;2023-03-20T01:47:34;12.70;99.90
18894;DHT22;9579;49.488;8.226;2023-03-20T01:50:26;14.00;99.90
18894;DHT22;9579;49.488;8.226;2023-03-20T01:53:17;13.40;99.90
18894;DHT22;9579;49.488;8.226;2023-03-20T01:56:05;13.10;99.90
18894;DHT22;9579;49.488;8.226;2023-03-20T01:58:56;12.60;99.90
18894;DHT22;9579;49.488;8.226;2023-03-20T02:01:45;12.60;99.90
18894;DHT22;9579;49.488;8.226;2023-03-20T02:04:37;13.00;99.90
18894;DHT22;9579;49.488;8.226;2023-03-20T02:07:28;12.60;99.90
18894;DHT22;9579;49.488;8.226;2023-03-20T02:10:18;13.80;99.90
18894;DHT22;9579;49.488;8.226;2023-03-20T02:13:05;12.60;99.90
18894;DHT22;9579;49.488;8.226;2023-03-20T02:16:04;13.10;99.90
18894;DHT22;9579;49.488;8.226;2023-03-20T02:18:54;12.60;99.90
18894;DHT22;9579;49.488;8.226;2023-03-20T02:22:03;11.90;99.90
18894;DHT22;9579;49.488;8.226;2023-03-20T02:25:23;11.90;99.90
18894;DHT22;9579;49.488;8.226;2023-03-20T02:32:11;12.50;99.90
18894;DHT22;9579;49.488;8.226;2023-03-20T02:35:47;14.00;99.90
18894;DHT22;9579;49.488;8.226;2023-03-20T02:38:55;12.40;99.90
18894;DHT22;9579;49.488;8.226;2023-03-20T02:41:51;12.40;99.90
18894;DHT22;9579;49.488;8.226;2023-03-20T02:47:20;12.30;99.90
18894;DHT22;9579;49.488;8.226;2023-03-20T02:50:14;12.40;99.90
18894;DHT22;9579;49.488;8.226;2023-03-20T02:53:12;12.50;99.90
18894;DHT22;9579;49.488;8.226;2023-03-20T02:56:10;12.40;99.90
18894;DHT22;9579;49.488;8.226;2023-03-20T02:59:03;12.30;99.90
18894;DHT22;9579;49.488;8.226;2023-03-20T03:01:57;12.10;99.90
18894;DHT22;9579;49.488;8.226;2023-03-20T03:04:50;12.30;99.90
18894;DHT22;9579;49.488;8.226;2023-03-20T03:07:41;12.40;99.90
18894;DHT22;9579;49.488;8.226;2023-03-20T03:13:11;12.40;99.90
18894;DHT22;9579;49.488;8.226;2023-03-20T03:16:04;12.90;99.90
18894;DHT22;9579;49.488;8.226;2023-03-20T03:19:01;12.60;99.90
18894;DHT22;9579;49.488;8.226;2023-03-20T03:21:49;13.20;99.90
18894;DHT22;9579;49.488;8.226;2023-03-20T03:24:42;13.60;99.90
18894;DHT22;9579;49.488;8.226;2023-03-20T03:27:33;13.20;99.90
18894;DHT22;9579;49.488;8.226;2023-03-20T03:30:25;13.70;99.90
18894;DHT22;9579;49.488;8.226;2023-03-20T03:33:18;12.50;99.90
18894;DHT22;9579;49.488;8.226;2023-03-20T03:36:10;12.60;99.90
18894;DHT22;9579;49.488;8.226;2023-03-20T03:39:01;12.40;99.90
18894;DHT22;9579;49.488;8.226;2023-03-20T03:41:52;12.50;99.90
18894;DHT22;9579;49.488;8.226;2023-03-20T03:44:46;12.50;99.90
18894;DHT22;9579;49.488;8.226;2023-03-20T03:47:39;12.30;99.90
18894;DHT22;9579;49.488;8.226;2023-03-20T03:50:30;12.40;99.90
18894;DHT22;9579;49.488;8.226;2023-03-20T03:53:22;12.40;99.90
18894;DHT22;9579;49.488;8.226;2023-03-20T03:56:11;12.40;99.90
18894;DHT22;9579;49.488;8.226;2023-03-20T03:59:02;12.50;99.90
18894;DHT22;9579;49.488;8.226;2023-03-20T04:01:51;12.40;99.90
18894;DHT22;9579;49.488;8.226;2023-03-20T04:04:44;12.20;99.90
18894;DHT22;9579;49.488;8.226;2023-03-20T04:07:32;12.30;99.90
18894;DHT22;9579;49.488;8.226;2023-03-20T04:10:20;12.20;99.90
18894;DHT22;9579;49.488;8.226;2023-03-20T04:13:07;12.20;99.90
18894;DHT22;9579;49.488;8.226;2023-03-20T04:15:55;12.20;99.90
18894;DHT22;9579;49.488;8.226;2023-03-20T04:18:42;12.20;99.90
18894;DHT22;9579;49.488;8.226;2023-03-20T04:21:31;12.20;99.90
18894;DHT22;9579;49.488;8.226;2023-03-20T04:24:18;12.20;99.90
18894;DHT22;9579;49.488;8.226;2023-03-20T04:27:05;12.30;99.90
18894;DHT22;9579;49.488;8.226;2023-03-20T04:29:52;12.30;99.90
18894;DHT22;9579;49.488;8.226;2023-03-20T04:32:39;12.40;99.90
18894;DHT22;9579;49.488;8.226;2023-03-20T04:35:26;12.40;99.90
18894;DHT22;9579;49.488;8.226;2023-03-20T04:38:15;12.50;99.90
18894;DHT22;9579;49.488;8.226;2023-03-20T04:41:02;12.60;99.90
18894;DHT22;9579;49.488;8.226;2023-03-20T04:43:49;12.60;99.90
18894;DHT22;9579;49.488;8.226;2023-03-20T04:46:36;12.50;99.90
18894;DHT22;9579;49.488;8.226;2023-03-20T04:49:23;12.50;99.90
18894;DHT22;9579;49.488;8.226;2023-03-20T04:52:10;12.50;99.90
18894;DHT22;9579;49.488;8.226;2023-03-20T04:54:59;12.50;99.90
18894;DHT22;9579;49.488;8.226;2023-03-20T04:57:46;12.50;99.90
18894;DHT22;9579;49.488;8.226;2023-03-20T05:00:33;12.50;99.90
18894;DHT22;9579;49.488;8.226;2023-03-20T05:03:20;12.60;99.90
18894;DHT22;9579;49.488;8.226;2023-03-20T05:06:08;12.60;99.90
18894;DHT22;9579;49.488;8.226;2023-03-20T05:08:55;12.50;99.90
18894;DHT22;9579;49.488;8.226;2023-03-20T05:11:45;12.40;99.90
18894;DHT22;9579;49.488;8.226;2023-03-20T05:14:32;12.50;99.90
18894;DHT22;9579;49.488;8.226;2023-03-20T05:17:19;12.40;99.90
18894;DHT22;9579;49.488;8.226;2023-03-20T05:20:07;12.40;99.90
18894;DHT22;9579;49.488;8.226;2023-03-20T05:22:54;12.50;99.90
18894;DHT22;9579;49.488;8.226;2023-03-20T05:25:41;12.40;99.90
18894;DHT22;9579;49.488;8.226;2023-03-20T05:28:29;12.40;99.90
18894;DHT22;9579;49.488;8.226;2023-03-20T05:31:17;12.40;99.90
18894;DHT22;9579;49.488;8.226;2023-03-20T05:34:04;12.40;99.90
18894;DHT22;9579;49.488;8.226;2023-03-20T05:36:51;12.40;99.90
18894;DHT22;9579;49.488;8.226;2023-03-20T05:39:38;12.40;99.90
18894;DHT22;9579;49.488;8.226;2023-03-20T05:42:25;12.50;99.90
18894;DHT22;9579;49.488;8.226;2023-03-20T05:45:14;12.40;99.90
18894;DHT22;9579;49.488;8.226;2023-03-20T05:48:01;12.50;99.90
18894;DHT22;9579;49.488;8.226;2023-03-20T05:50:48;12.50;99.90
18894;DHT22;9579;49.488;8.226;2023-03-20T05:53:35;12.50;99.90
18894;DHT22;9579;49.488;8.226;2023-03-20T05:56:22;12.50;99.90
18894;DHT22;9579;49.488;8.226;2023-03-20T05:59:10;12.50;99.90
18894;DHT22;9579;49.488;8.226;2023-03-20T06:01:58;12.60;99.90
18894;DHT22;9579;49.488;8.226;2023-03-20T06:04:45;12.70;99.90
18894;DHT22;9579;49.488;8.226;2023-03-20T06:07:32;12.60;99.90
18894;DHT22;9579;49.488;8.226;2023-03-20T06:10:19;12.50;99.90
18894;DHT22;9579;49.488;8.226;2023-03-20T06:13:07;12.60;99.90
18894;DHT22;9579;49.488;8.226;2023-03-20T06:15:54;12.60;99.90
18894;DHT22;9579;49.488;8.226;2023-03-20T06:18:42;12.50;99.90
18894;DHT22;9579;49.488;8.226;2023-03-20T06:21:29;12.50;99.90
18894;DHT22;9579;49.488;8.226;2023-03-20T06:24:16;12.40;99.90
18894;DHT22;9579;49.488;8.226;2023-03-20T06:27:03;12.30;99.90
18894;DHT22;9579;49.488;8.226;2023-03-20T06:29:50;12.20;99.90
18894;DHT22;9579;49.488;8.226;2023-03-20T06:32:37;12.20;99.90
18894;DHT22;9579;49.488;8.226;2023-03-20T06:35:26;12.30;99.90
18894;DHT22;9579;49.488;8.226;2023-03-20T06:38:15;12.30;99.90
18894;DHT22;9579;49.488;8.226;2023-03-20T06:41:03;12.30;99.90
18894;DHT22;9579;49.488;8.226;2023-03-20T06:43:50;12.30;99.90
18894;DHT22;9579;49.488;8.226;2023-03-20T06:46:37;12.30;99.90
18894;DHT22;9579;49.488;8.226;2023-03-20T06:49:24;12.30;99.90
18894;DHT22;9579;49.488;8.226;2023-03-20T06:52:15;12.30;99.90
18894;DHT22;9579;49.488;8.226;2023-03-20T06:55:03;12.20;99.90
18894;DHT22;9579;49.488;8.226;2023-03-20T06:57:50;12.30;99.90
18894;DHT22;9579;49.488;8.226;2023-03-20T07:00:37;12.30;99.90
18894;DHT22;9579;49.488;8.226;2023-03-20T07:03:24;12.20;99.90
18894;DHT22;9579;49.488;8.226;2023-03-20T07:06:12;12.30;99.90
18894;DHT22;9579;49.488;8.226;2023-03-20T07:09:01;12.30;99.90
18894;DHT22;9579;49.488;8.226;2023-03-20T07:11:49;12.30;99.90
18894;DHT22;9579;49.488;8.226;2023-03-20T07:14:36;12.40;99.90
18894;DHT22;9579;49.488;8.226;2023-03-20T07:17:23;12.50;99.90
18894;DHT22;9579;49.488;8.226;2023-03-20T07:20:11;12.70;99.90
18894;DHT22;9579;49.488;8.226;2023-03-20T07:22:58;12.90;99.90
18894;DHT22;9579;49.488;8.226;2023-03-20T07:25:46;13.00;99.90
18894;DHT22;9579;49.488;8.226;2023-03-20T07:28:33;13.10;99.90
18894;DHT22;9579;49.488;8.226;2023-03-20T07:31:22;13.00;99.90
18894;DHT22;9579;49.488;8.226;2023-03-20T07:34:10;13.00;99.90
18894;DHT22;9579;49.488;8.226;2023-03-20T07:36:57;12.90;99.90
18894;DHT22;9579;49.488;8.226;2023-03-20T07:39:44;12.90;99.90
18894;DHT22;9579;49.488;8.226;2023-03-20T07:42:33;12.80;99.90
18894;DHT22;9579;49.488;8.226;2023-03-20T07:45:20;12.70;99.90
18894;DHT22;9579;49.488;8.226;2023-03-20T07:48:07;12.70;99.90
18894;DHT22;9579;49.488;8.226;2023-03-20T07:50:54;12.70;99.90
18894;DHT22;9579;49.488;8.226;2023-03-20T07:53:41;12.60;99.90
18894;DHT22;9579;49.488;8.226;2023-03-20T07:56:29;12.70;99.90
18894;DHT22;9579;49.488;8.226;2023-03-20T07:59:17;12.70;99.90
18894;DHT22;9579;49.488;8.226;2023-03-20T08:02:04;12.70;99.90
18894;DHT22;9579;49.488;8.226;2023-03-20T08:04:51;12.80;99.90
18894;DHT22;9579;49.488;8.226;2023-03-20T08:07:38;12.80;99.90
18894;DHT22;9579;49.488;8.226;2023-03-20T08:10:26;12.80;99.90
18894;DHT22;9579;49.488;8.226;2023-03-20T08:13:13;12.80;99.90
18894;DHT22;9579;49.488;8.226;2023-03-20T08:16:04;12.70;99.90
18894;DHT22;9579;49.488;8.226;2023-03-20T08:18:51;12.70;99.90
18894;DHT22;9579;49.488;8.226;2023-03-20T08:21:40;12.70;99.90
18894;DHT22;9579;49.488;8.226;2023-03-20T08:24:28;12.70;99.90
18894;DHT22;9579;49.488;8.226;2023-03-20T08:27:15;12.80;99.90
18894;DHT22;9579;49.488;8.226;2023-03-20T08:30:06;13.00;99.90
18894;DHT22;9579;49.488;8.226;2023-03-20T08:32:55;13.00;99.90
18894;DHT22;9579;49.488;8.226;2023-03-20T08:35:43;13.00;99.90
18894;DHT22;9579;49.488;8.226;2023-03-20T08:38:30;13.10;99.90
18894;DHT22;9579;49.488;8.226;2023-03-20T08:41:17;13.20;99.90
18894;DHT22;9579;49.488;8.226;2023-03-20T08:44:05;13.20;99.90
18894;DHT22;9579;49.488;8.226;2023-03-20T08:46:52;13.20;99.90
18894;DHT22;9579;49.488;8.226;2023-03-20T08:49:41;13.10;99.90
18894;DHT22;9579;49.488;8.226;2023-03-20T08:52:28;13.10;99.90
18894;DHT22;9579;49.488;8.226;2023-03-20T08:55:15;13.10;99.90
18894;DHT22;9579;49.488;8.226;2023-03-20T08:58:03;13.00;99.90
18894;DHT22;9579;49.488;8.226;2023-03-20T09:00:50;13.00;99.90
18894;DHT22;9579;49.488;8.226;2023-03-20T09:03:37;13.10;99.90
18894;DHT22;9579;49.488;8.226;2023-03-20T09:06:26;13.10;99.90
18894;DHT22;9579;49.488;8.226;2023-03-20T09:09:13;13.20;99.90
18894;DHT22;9579;49.488;8.226;2023-03-20T09:12:03;13.30;99.90
18894;DHT22;9579;49.488;8.226;2023-03-20T09:14:50;13.30;99.90
18894;DHT22;9579;49.488;8.226;2023-03-20T09:17:37;13.40;99.90
18894;DHT22;9579;49.488;8.226;2023-03-20T09:20:24;13.30;99.90
18894;DHT22;9579;49.488;8.226;2023-03-20T09:23:13;13.20;99.90
18894;DHT22;9579;49.488;8.226;2023-03-20T09:26:00;13.20;99.90
18894;DHT22;9579;49.488;8.226;2023-03-20T09:28:47;13.20;99.90
18894;DHT22;9579;49.488;8.226;2023-03-20T09:31:34;13.20;99.90
18894;DHT22;9579;49.488;8.226;2023-03-20T09:34:21;13.30;99.90
18894;DHT22;9579;49.488;8.226;2023-03-20T09:37:09;13.30;99.90
18894;DHT22;9579;49.488;8.226;2023-03-20T09:42:39;13.50;99.90
18894;DHT22;9579;49.488;8.226;2023-03-20T09:45:39;13.50;99.90
18894;DHT22;9579;49.488;8.226;2023-03-20T09:51:11;13.50;99.90
18894;DHT22;9579;49.488;8.226;2023-03-20T09:54:04;14.00;99.90
18894;DHT22;9579;49.488;8.226;2023-03-20T09:56:55;13.50;99.90
18894;DHT22;9579;49.488;8.226;2023-03-20T09:59:44;14.00;99.90
18894;DHT22;9579;49.488;8.226;2023-03-20T10:02:38;13.70;99.90
18894;DHT22;9579;49.488;8.226;2023-03-20T10:05:30;14.70;99.90
18894;DHT22;9579;49.488;8.226;2023-03-20T10:08:21;14.00;99.90
18894;DHT22;9579;49.488;8.226;2023-03-20T10:11:21;14.90;99.90
18894;DHT22;9579;49.488;8.226;2023-03-20T10:14:17;15.00;99.90
18894;DHT22;9579;49.488;8.226;2023-03-20T10:17:20;14.60;99.90
18894;DHT22;9579;49.488;8.226;2023-03-20T10:25:23;16.40;99.90
18894;DHT22;9579;49.488;8.226;2023-03-20T10:28:28;16.70;99.10
18894;DHT22;9579;49.488;8.226;2023-03-20T10:35:03;16.80;98.70
18894;DHT22;9579;49.488;8.226;2023-03-20T10:38:12;16.90;98.30
18894;DHT22;9579;49.488;8.226;2023-03-20T10:41:08;16.80;97.50
18894;DHT22;9579;49.488;8.226;2023-03-20T10:43:56;17.00;96.70
18894;DHT22;9579;49.488;8.226;2023-03-20T10:53:45;16.20;96.20
18894;DHT22;9579;49.488;8.226;2023-03-20T10:56:35;17.10;95.90
18894;DHT22;9579;49.488;8.226;2023-03-20T10:59:38;17.30;95.40
18894;DHT22;9579;49.488;8.226;2023-03-20T11:02:28;17.70;95.10
18894;DHT22;9579;49.488;8.226;2023-03-20T11:05:21;17.80;94.40
18894;DHT22;9579;49.488;8.226;2023-03-20T11:08:11;17.90;94.90
18894;DHT22;9579;49.488;8.226;2023-03-20T11:11:01;17.80;95.10
18894;DHT22;9579;49.488;8.226;2023-03-20T11:13:49;18.00;94.60
18894;DHT22;9579;49.488;8.226;2023-03-20T11:16:36;18.10;94.10
18894;DHT22;9579;49.488;8.226;2023-03-20T11:19:25;18.10;93.60
18894;DHT22;9579;49.488;8.226;2023-03-20T11:22:22;18.20;93.40
18894;DHT22;9579;49.488;8.226;2023-03-20T11:31:45;17.80;93.40
18894;DHT22;9579;49.488;8.226;2023-03-20T11:34:36;18.50;94.20
18894;DHT22;9579;49.488;8.226;2023-03-20T11:37:27;18.00;92.60
18894;DHT22;9579;49.488;8.226;2023-03-20T11:40:16;18.00;92.40
18894;DHT22;9579;49.488;8.226;2023-03-20T11:43:10;17.90;92.00
18894;DHT22;9579;49.488;8.226;2023-03-20T11:46:01;17.70;92.60
18894;DHT22;9579;49.488;8.226;2023-03-20T11:49:04;18.30;92.50
18894;DHT22;9579;49.488;8.226;2023-03-20T11:51:53;18.40;92.50
18894;DHT22;9579;49.488;8.226;2023-03-20T11:54:47;17.90;92.00
18894;DHT22;9579;49.488;8.226;2023-03-20T11:57:37;18.20;92.50
18894;DHT22;9579;49.488;8.226;2023-03-20T12:13:15;17.10;91.80
18894;DHT22;9579;49.488;8.226;2023-03-20T12:24:00;17.00;91.80
18894;DHT22;9579;49.488;8.226;2023-03-20T12:26:55;17.10;92.10
18894;DHT22;9579;49.488;8.226;2023-03-20T12:29:49;17.40;91.70
18894;DHT22;9579;49.488;8.226;2023-03-20T12:32:41;17.70;91.00
18894;DHT22;9579;49.488;8.226;2023-03-20T12:35:31;19.10;91.80
18894;DHT22;9579;49.488;8.226;2023-03-20T12:38:25;18.50;89.20
18894;DHT22;9579;49.488;8.226;2023-03-20T12:41:15;18.90;88.20
18894;DHT22;9579;49.488;8.226;2023-03-20T12:44:14;19.30;87.70
18894;DHT22;9579;49.488;8.226;2023-03-20T12:47:27;19.40;85.60
18894;DHT22;9579;49.488;8.226;2023-03-20T12:50:25;19.80;85.80
18894;DHT22;9579;49.488;8.226;2023-03-20T12:53:28;20.00;81.90
18894;DHT22;9579;49.488;8.226;2023-03-20T12:56:29;20.00;80.10
18894;DHT22;9579;49.488;8.226;2023-03-20T12:59:23;20.20;82.40
18894;DHT22;9579;49.488;8.226;2023-03-20T13:02:23;20.30;80.50
18894;DHT22;9579;49.488;8.226;2023-03-20T13:05:20;20.40;80.50
18894;DHT22;9579;49.488;8.226;2023-03-20T13:11:28;20.40;79.20
18894;DHT22;9579;49.488;8.226;2023-03-20T13:14:22;20.40;79.50
18894;DHT22;9579;49.488;8.226;2023-03-20T13:17:18;20.30;77.00
18894;DHT22;9579;49.488;8.226;2023-03-20T13:20:19;20.10;78.30
18894;DHT22;9579;49.488;8.226;2023-03-20T13:23:12;20.00;78.10
18894;DHT22;9579;49.488;8.226;2023-03-20T13:26:12;19.50;79.10
18894;DHT22;9579;49.488;8.226;2023-03-20T13:29:07;19.40;79.20
18894;DHT22;9579;49.488;8.226;2023-03-20T13:32:05;19.30;80.10
18894;DHT22;9579;49.488;8.226;2023-03-20T13:35:18;18.80;80.80
18894;DHT22;9579;49.488;8.226;2023-03-20T13:38:13;18.50;80.40
18894;DHT22;9579;49.488;8.226;2023-03-20T13:41:04;18.60;79.90
18894;DHT22;9579;49.488;8.226;2023-03-20T13:43:57;18.30;80.70
18894;DHT22;9579;49.488;8.226;2023-03-20T13:46:48;18.30;80.80
18894;DHT22;9579;49.488;8.226;2023-03-20T13:49:38;18.60;80.10
18894;DHT22;9579;49.488;8.226;2023-03-20T13:52:35;18.70;80.50
18894;DHT22;9579;49.488;8.226;2023-03-20T13:55:29;18.90;79.90
18894;DHT22;9579;49.488;8.226;2023-03-20T13:58:33;19.00;79.30
18894;DHT22;9579;49.488;8.226;2023-03-20T14:01:31;18.70;79.50
18894;DHT22;9579;49.488;8.226;2023-03-20T14:04:23;18.90;79.30
18894;DHT22;9579;49.488;8.226;2023-03-20T14:07:31;18.60;79.40
18894;DHT22;9579;49.488;8.226;2023-03-20T14:10:36;18.30;80.20
18894;DHT22;9579;49.488;8.226;2023-03-20T14:13:24;18.10;80.30
18894;DHT22;9579;49.488;8.226;2023-03-20T14:16:16;18.00;81.30
18894;DHT22;9579;49.488;8.226;2023-03-20T14:19:15;17.90;79.40
18894;DHT22;9579;49.488;8.226;2023-03-20T14:22:14;17.90;79.10
18894;DHT22;9579;49.488;8.226;2023-03-20T14:25:05;19.30;80.80
18894;DHT22;9579;49.488;8.226;2023-03-20T14:27:56;17.60;79.70
18894;DHT22;9579;49.488;8.226;2023-03-20T14:30:46;18.40;81.10
18894;DHT22;9579;49.488;8.226;2023-03-20T14:33:41;17.20;78.30
18894;DHT22;9579;49.488;8.226;2023-03-20T14:36:42;18.40;80.80
18894;DHT22;9579;49.488;8.226;2023-03-20T14:39:40;16.60;79.30
18894;DHT22;9579;49.488;8.226;2023-03-20T14:42:49;16.10;79.80
18894;DHT22;9579;49.488;8.226;2023-03-20T14:45:41;15.30;80.40
18894;DHT22;9579;49.488;8.226;2023-03-20T14:48:36;18.00;82.90
18894;DHT22;9579;49.488;8.226;2023-03-20T14:51:32;16.90;81.90
18894;DHT22;9579;49.488;8.226;2023-03-20T14:54:28;16.10;80.80
18894;DHT22;9579;49.488;8.226;2023-03-20T14:57:18;15.20;80.40
18894;DHT22;9579;49.488;8.226;2023-03-20T15:00:20;17.10;82.90
18894;DHT22;9579;49.488;8.226;2023-03-20T15:03:10;15.50;81.60
18894;DHT22;9579;49.488;8.226;2023-03-20T15:06:04;14.60;81.60
18894;DHT22;9579;49.488;8.226;2023-03-20T15:08:55;15.70;83.00
18894;DHT22;9579;49.488;8.226;2023-03-20T15:11:45;15.50;82.50
18894;DHT22;9579;49.488;8.226;2023-03-20T15:14:38;15.60;82.10
18894;DHT22;9579;49.488;8.226;2023-03-20T15:17:34;14.20;80.60
18894;DHT22;9579;49.488;8.226;2023-03-20T15:23:14;15.70;81.60
18894;DHT22;9579;49.488;8.226;2023-03-20T15:26:05;15.90;81.10
18894;DHT22;9579;49.488;8.226;2023-03-20T15:29:12;14.70;80.10
18894;DHT22;9579;49.488;8.226;2023-03-20T15:48:27;15.60;81.50
18894;DHT22;9579;49.488;8.226;2023-03-20T16:02:19;15.30;80.40
18894;DHT22;9579;49.488;8.226;2023-03-20T16:15:29;14.90;79.90
18894;DHT22;9579;49.488;8.226;2023-03-20T16:18:51;15.00;80.90
18894;DHT22;9579;49.488;8.226;2023-03-20T16:27:21;15.00;78.30
18894;DHT22;9579;49.488;8.226;2023-03-20T16:30:17;14.00;77.70
18894;DHT22;9579;49.488;8.226;2023-03-20T16:33:23;13.90;77.00
18894;DHT22;9579;49.488;8.226;2023-03-20T16:36:20;14.10;77.50
18894;DHT22;9579;49.488;8.226;2023-03-20T16:39:18;14.70;78.60
18894;DHT22;9579;49.488;8.226;2023-03-20T16:42:17;14.70;79.20
18894;DHT22;9579;49.488;8.226;2023-03-20T16:45:18;14.50;80.30
18894;DHT22;9579;49.488;8.226;2023-03-20T16:48:30;15.20;81.40
18894;DHT22;9579;49.488;8.226;2023-03-20T16:51:19;15.80;83.40
18894;DHT22;9579;49.488;8.226;2023-03-20T16:54:18;14.10;81.10
18894;DHT22;9579;49.488;8.226;2023-03-20T16:57:08;14.30;82.50
18894;DHT22;9579;49.488;8.226;2023-03-20T17:00:02;15.30;83.60
18894;DHT22;9579;49.488;8.226;2023-03-20T17:02:57;14.30;81.80
18894;DHT22;9579;49.488;8.226;2023-03-20T17:05:53;13.10;81.40
18894;DHT22;9579;49.488;8.226;2023-03-20T17:08:44;15.50;84.00
18894;DHT22;9579;49.488;8.226;2023-03-20T17:11:33;14.90;84.60
18894;DHT22;9579;49.488;8.226;2023-03-20T17:14:21;15.70;85.70
18894;DHT22;9579;49.488;8.226;2023-03-20T17:17:12;14.50;85.20
18894;DHT22;9579;49.488;8.226;2023-03-20T17:20:00;13.90;84.80
18894;DHT22;9579;49.488;8.226;2023-03-20T17:22:52;13.80;84.50
18894;DHT22;9579;49.488;8.226;2023-03-20T17:25:41;13.50;85.70
18894;DHT22;9579;49.488;8.226;2023-03-20T17:28:32;14.70;86.60
18894;DHT22;9579;49.488;8.226;2023-03-20T17:31:35;13.40;84.80
18894;DHT22;9579;49.488;8.226;2023-03-20T17:34:26;12.90;84.00
18894;DHT22;9579;49.488;8.226;2023-03-20T17:37:23;13.70;84.70
18894;DHT22;9579;49.488;8.226;2023-03-20T17:40:20;13.20;83.60
18894;DHT22;9579;49.488;8.226;2023-03-20T17:48:47;14.00;86.80
18894;DHT22;9579;49.488;8.226;2023-03-20T17:51:51;13.60;85.20
18894;DHT22;9579;49.488;8.226;2023-03-20T17:54:42;14.00;85.80
18894;DHT22;9579;49.488;8.226;2023-03-20T17:57:37;14.10;87.10
18894;DHT22;9579;49.488;8.226;2023-03-20T18:00:32;13.10;85.10
18894;DHT22;9579;49.488;8.226;2023-03-20T18:03:21;14.10;85.80
18894;DHT22;9579;49.488;8.226;2023-03-20T18:06:19;14.20;86.20
18894;DHT22;9579;49.488;8.226;2023-03-20T18:40:15;14.10;86.10
18894;DHT22;9579;49.488;8.226;2023-03-20T18:43:15;14.50;86.90
18894;DHT22;9579;49.488;8.226;2023-03-20T18:46:35;13.20;86.30
18894;DHT22;9579;49.488;8.226;2023-03-20T18:49:42;14.40;88.50
18894;DHT22;9579;49.488;8.226;2023-03-20T18:52:32;14.10;86.20
18894;DHT22;9579;49.488;8.226;2023-03-20T18:55:30;14.10;89.60
18894;DHT22;9579;49.488;8.226;2023-03-20T18:58:22;13.70;88.60
18894;DHT22;9579;49.488;8.226;2023-03-20T20:06:16;13.80;91.80
18894;DHT22;9579;49.488;8.226;2023-03-20T20:27:39;13.60;92.20
18894;DHT22;9579;49.488;8.226;2023-03-20T20:59:39;13.50;93.00
18894;DHT22;9579;49.488;8.226;2023-03-20T21:02:36;13.30;92.70
18894;DHT22;9579;49.488;8.226;2023-03-20T21:21:07;13.30;93.70
18894;DHT22;9579;49.488;8.226;2023-03-20T21:26:34;13.50;93.70
18894;DHT22;9579;49.488;8.226;2023-03-20T21:34:36;13.50;93.70
18894;DHT22;9579;49.488;8.226;2023-03-20T21:37:27;13.10;93.70
18894;DHT22;9579;49.488;8.226;2023-03-20T21:48:03;13.40;95.30
18894;DHT22;9579;49.488;8.226;2023-03-20T21:51:13;12.70;94.50
18894;DHT22;9579;49.488;8.226;2023-03-20T21:54:03;13.40;94.40
18894;DHT22;9579;49.488;8.226;2023-03-20T21:59:32;13.40;95.50
18894;DHT22;9579;49.488;8.226;2023-03-20T22:02:25;13.30;95.00
18894;DHT22;9579;49.488;8.226;2023-03-20T22:05:19;12.70;94.60
18894;DHT22;9579;49.488;8.226;2023-03-20T22:08:23;12.60;94.70
18894;DHT22;9579;49.488;8.226;2023-03-20T22:12:10;12.40;94.60
18894;DHT22;9579;49.488;8.226;2023-03-20T22:15:10;12.90;94.50
18894;DHT22;9579;49.488;8.226;2023-03-20T22:25:53;13.10;95.80
18894;DHT22;9579;49.488;8.226;2023-03-20T22:28:44;12.30;95.30
18894;DHT22;9579;49.488;8.226;2023-03-20T22:31:32;12.80;95.70
18894;DHT22;9579;49.488;8.226;2023-03-20T22:34:22;12.90;96.00
18894;DHT22;9579;49.488;8.226;2023-03-20T22:39:46;13.10;95.80
18894;DHT22;9579;49.488;8.226;2023-03-20T22:42:42;13.80;95.70
18894;DHT22;9579;49.488;8.226;2023-03-20T22:45:48;12.80;95.40
18894;DHT22;9579;49.488;8.226;2023-03-20T22:48:36;12.70;95.00
18894;DHT22;9579;49.488;8.226;2023-03-20T22:51:26;12.90;95.30
18894;DHT22;9579;49.488;8.226;2023-03-20T22:54:15;13.20;95.90
18894;DHT22;9579;49.488;8.226;2023-03-20T22:57:03;12.20;94.80
18894;DHT22;9579;49.488;8.226;2023-03-20T22:59:43;12.10;94.30
18894;DHT22;9579;49.488;8.226;2023-03-20T23:02:32;13.10;94.70
18894;DHT22;9579;49.488;8.226;2023-03-20T23:05:19;13.80;95.40
18894;DHT22;9579;49.488;8.226;2023-03-20T23:08:08;13.10;95.60
18894;DHT22;9579;49.488;8.226;2023-03-20T23:10:56;14.10;96.30
18894;DHT22;9579;49.488;8.226;2023-03-20T23:13:45;13.10;95.80
18894;DHT22;9579;49.488;8.226;2023-03-20T23:16:33;14.30;96.60
18894;DHT22;9579;49.488;8.226;2023-03-20T23:19:23;13.30;96.10
18894;DHT22;9579;49.488;8.226;2023-03-20T23:22:12;13.40;96.10
18894;DHT22;9579;49.488;8.226;2023-03-20T23:25:01;13.10;96.00